Etusivu
METAR-TAF:

METAR-TAF

Lentoasemat :

Gage, Oklahoma, Yhdysvallat

Leveyspiiri: 36-17-48N, Pituuspiiri: 099-46-08W, korkeus merenpinnasta: 677 m

Tämänhetkinen sää

Tämä raportti tehtiin 47 minuuttia sitten, kello 03.53 UTC
Tuuli 3 kn etelästä/lounaasta
Lämpötila 3°C
Kosteus 56%
Ilmanpaine 1025 hPa
Näkyvyys: 16.1 km
selkeää

METAR: KGAG 290353Z AUTO 21003KT 10SM CLR 03/M05 A3027 RMK AO2 SLP258 T00281050

Aika: 22:40 (04:40 UTC)


TAF: puuttuu

Säähavainnot ja -ennusteet yli 4000 lentoasemalta (METAR- ja TAF-raportit).

Käytössä olevat sääasemat on merkitty karttaan keltaisilla ja punaisilla pisteillä.

Aseta hiiri pisteen päälle nähdäksesi sääaseman nimen.

Klikkaa sitten nähdäksesi säähavainnot ja -ennusteet.

Kartan vaihtaminen: klikkaa mustalla rastilla varustettuja vihreitä pisteitä, niin voit zoomata sisään; viivalla varustettua vihreää pistettä, niin voit zoomata ulos tai vihreitä nuolia, niin pääset viereisille kartoille.


METAR-TAF: